Aeroporto :
LOGIN :

Iscrizione | Disclaimer

   EN    FR    IT 

 










Sommario :    VFR   VFR Marginale   IFR   IFR Intensivo   IFR Molto Intensivo
Visibilità : 
Base nubi : 
>= 8 km
>= 3000ft
5 / 8 km
1000 / 3000 ft
1500m / 5 km
500 / 1000 ft
800 / 1500m
200 / 500 ft
< 800m
< 200 ft
Simboli :   Temporali  Nebbia  Neve Forte  Precipitazioni Forti  Vento > 20 kt
SIGMETs :   Varie  Temporali  Ghiacco  Turbolenza  Onda orograficha  Ceneri Vulcaniche






- Altitudine del aeroporto : 325 ft


LPCS - Cascais

ULTIMO METAR :
  • 031300Z 36011KT CAVOK 15/04 Q1015

METARs OBSOLETI :
  • 031230Z 02007KT 340V050 CAVOK 15/04 Q1015
  • 031200Z 34009KT CAVOK 15/05 Q1016
  • 031130Z 36007KT CAVOK 14/05 Q1017
  • 031100Z 01009KT CAVOK 13/04 Q1017
  • 031030Z 03008KT CAVOK 12/03 Q1017

TAF TAF LPCS
Valido dal 03 a 12 ore il 03 a 21 ore UTC


031100Z 0312/0321 02005KT CAVOK
BECMG 0312/0315 34010KT
BECMG 0315/0318 30015KT 9999 SCT018 BKN035
TEMPO 0318/0321 30017G30KT



MetMap, La meteo Aeronautica in un colpo d'occhio ! - Copyright ORBIFLY Dicembre 2007 - Disclaimer

ORBIFLY MET'MAP TEAM :

Programmazione e sviluppo : Alexandra Zaïnal
Concezione : Baudouin d'Aumeries
Aiuto per la programmazione : Marc-Olivier Méhu
Supporto tecnico e logistico : Manuel Goepfert
Aiuto per la traduzione : Arnaldo La Scala

Contatto : metmap@orbifly.com




FONTI E CREDITI :

   NOAA